Aeroporto :
LOGIN :

Iscrizione | Disclaimer

   EN    FR    IT 

 










Sommario :    VFR   VFR Marginale   IFR   IFR Intensivo   IFR Molto Intensivo
Visibilità : 
Base nubi : 
>= 8 km
>= 3000ft
5 / 8 km
1000 / 3000 ft
1500m / 5 km
500 / 1000 ft
800 / 1500m
200 / 500 ft
< 800m
< 200 ft
Simboli :   Temporali  Nebbia  Neve Forte  Precipitazioni Forti  Vento > 20 kt
SIGMETs :   Varie  Temporali  Ghiacco  Turbolenza  Onda orograficha  Ceneri Vulcaniche






- Altitudine del aeroporto : 101 ft
- Codice IATA : HAD


ESMT - Halmstad

ULTIMO METAR :
  • 221220Z 11009KT 9999 FEW008 SCT009 OVC011 08/07 Q1012

METARs OBSOLETI :
  • 221150Z 11009KT 9999 DZ FEW008 OVC009 08/07 Q1012
  • 221120Z 11010KT 080V140 8000 -RA FEW009 SCT010 OVC013 08/07 Q1012
  • 221050Z 11010KT 080V140 9999 -RA OVC008 08/06 Q1012
  • 221020Z 12011KT 090V150 9999 BKN009 08/06 Q1012
  • 220950Z 11010KT 070V140 9999 BKN009 08/06 Q1012
  • 220920Z 12010KT 080V150 9999 FEW009 BKN010 08/06 Q1012

TAF TAF ESMT
Valido dal 22 a 12 ore il 22 a 21 ore UTC


221108Z 2212/2221 11010KT 8000 BKN008
TEMPO 2212/2214 4000 -RADZ BR BKN010
TEMPO 2214/2219 3000 -RADZ BR BKN004
BECMG 2219/2221 2000 BR BKN003



MetMap, La meteo Aeronautica in un colpo d'occhio ! - Copyright ORBIFLY Dicembre 2007 - Disclaimer

ORBIFLY MET'MAP TEAM :

Programmazione e sviluppo : Alexandra Zaïnal
Concezione e sviluppo : Baudouin d'Aumeries
Co-Programmazione e sviluppo : Marc-Olivier Méhu
Supporto tecnico e logistico : Manuel Goepfert
Aiuto per la traduzione : Arnaldo La Scala

Contatto : metmap@orbifly.com




FONTI E CREDITI :

   NOAA